Terminal Aerodrome Forecast
Issued by NWS Melbourne, FL

Home | Current Version | Previous Version | Text Only | Print | Product List | Glossary On
Versions: 1 2 3 4 5 6 7 8 9 10 11 12 13 14 15 16 17 18 19 20 21
740
FTUS42 KMLB 251820 AAB
TAFMLB
TAF AMD
KMLB 251820Z 2518/2618 26011G16KT P6SM BKN040
     FM260000 32007KT P6SM SCT050
     FM260600 27004KT P6SM SKC
     FM261300 32007KT P6SM FEW060=

USA.gov is the U.S. government's official web portal to all federal, state and local government web resources and services.